sensor_id;sensor_type;location;lat;lon;timestamp;pressure;altitude;pressure_sealevel;temperature
65290;BMP180;51893;59.754;10.110;2024-02-16T00:02:03;100948.00;;;-1.20
65290;BMP180;51893;59.754;10.110;2024-02-16T00:04:32;100954.80;;;-1.20
65290;BMP180;51893;59.754;10.110;2024-02-16T00:07:00;100949.80;;;-1.10
65290;BMP180;51893;59.754;10.110;2024-02-16T00:09:28;100951.00;;;-1.10
65290;BMP180;51893;59.754;10.110;2024-02-16T00:11:57;100944.00;;;-1.10
65290;BMP180;51893;59.754;10.110;2024-02-16T00:14:26;100943.60;;;-1.10
65290;BMP180;51893;59.754;10.110;2024-02-16T00:16:54;100934.00;;;-1.02
65290;BMP180;51893;59.754;10.110;2024-02-16T00:19:22;100920.40;;;-1.00
65290;BMP180;51893;59.754;10.110;2024-02-16T00:21:51;100905.60;;;-1.00
65290;BMP180;51893;59.754;10.110;2024-02-16T00:24:22;100899.20;;;-1.00
65290;BMP180;51893;59.754;10.110;2024-02-16T00:26:50;100901.00;;;-1.00
65290;BMP180;51893;59.754;10.110;2024-02-16T00:29:19;100901.60;;;-0.90
65290;BMP180;51893;59.754;10.110;2024-02-16T00:31:47;100893.80;;;-0.90
65290;BMP180;51893;59.754;10.110;2024-02-16T00:34:15;100882.00;;;-0.90
65290;BMP180;51893;59.754;10.110;2024-02-16T00:36:44;100864.20;;;-0.90
65290;BMP180;51893;59.754;10.110;2024-02-16T00:39:12;100846.00;;;-0.90
65290;BMP180;51893;59.754;10.110;2024-02-16T00:41:40;100852.00;;;-0.90
65290;BMP180;51893;59.754;10.110;2024-02-16T00:44:08;100851.80;;;-0.80
65290;BMP180;51893;59.754;10.110;2024-02-16T00:46:36;100848.20;;;-0.80
65290;BMP180;51893;59.754;10.110;2024-02-16T00:49:05;100837.80;;;-0.80
65290;BMP180;51893;59.754;10.110;2024-02-16T00:51:33;100842.20;;;-0.80
65290;BMP180;51893;59.754;10.110;2024-02-16T00:54:03;100837.80;;;-0.80
65290;BMP180;51893;59.754;10.110;2024-02-16T00:56:35;100823.00;;;-0.80
65290;BMP180;51893;59.754;10.110;2024-02-16T00:59:04;100814.60;;;-0.80
65290;BMP180;51893;59.754;10.110;2024-02-16T01:01:32;100813.00;;;-0.80
65290;BMP180;51893;59.754;10.110;2024-02-16T01:04:02;100819.60;;;-0.74
65290;BMP180;51893;59.754;10.110;2024-02-16T01:06:30;100822.40;;;-0.70
65290;BMP180;51893;59.754;10.110;2024-02-16T01:08:59;100812.20;;;-0.70
65290;BMP180;51893;59.754;10.110;2024-02-16T01:11:27;100808.20;;;-0.72
65290;BMP180;51893;59.754;10.110;2024-02-16T01:13:56;100807.60;;;-0.80
65290;BMP180;51893;59.754;10.110;2024-02-16T01:16:24;100801.80;;;-0.80
65290;BMP180;51893;59.754;10.110;2024-02-16T01:18:52;100806.60;;;-0.80
65290;BMP180;51893;59.754;10.110;2024-02-16T01:21:21;100803.80;;;-0.80
65290;BMP180;51893;59.754;10.110;2024-02-16T01:23:49;100798.20;;;-0.80
65290;BMP180;51893;59.754;10.110;2024-02-16T01:26:18;100791.40;;;-0.80
65290;BMP180;51893;59.754;10.110;2024-02-16T01:28:46;100778.80;;;-0.74
65290;BMP180;51893;59.754;10.110;2024-02-16T01:31:14;100768.40;;;-0.76
65290;BMP180;51893;59.754;10.110;2024-02-16T01:33:42;100760.40;;;-0.70
65290;BMP180;51893;59.754;10.110;2024-02-16T01:36:10;100760.80;;;-0.70
65290;BMP180;51893;59.754;10.110;2024-02-16T01:38:38;100762.80;;;-0.70
65290;BMP180;51893;59.754;10.110;2024-02-16T01:41:06;100757.60;;;-0.62
65290;BMP180;51893;59.754;10.110;2024-02-16T01:43:36;100761.60;;;-0.70
65290;BMP180;51893;59.754;10.110;2024-02-16T01:46:04;100754.40;;;-0.62
65290;BMP180;51893;59.754;10.110;2024-02-16T01:48:33;100743.40;;;-0.60
65290;BMP180;51893;59.754;10.110;2024-02-16T01:51:04;100742.80;;;-0.54
65290;BMP180;51893;59.754;10.110;2024-02-16T01:53:35;100738.80;;;-0.56
65290;BMP180;51893;59.754;10.110;2024-02-16T01:56:05;100741.60;;;-0.60
65290;BMP180;51893;59.754;10.110;2024-02-16T01:58:34;100747.60;;;-0.50
65290;BMP180;51893;59.754;10.110;2024-02-16T02:01:02;100737.20;;;-0.50
65290;BMP180;51893;59.754;10.110;2024-02-16T02:03:31;100728.00;;;-0.50
65290;BMP180;51893;59.754;10.110;2024-02-16T02:05:59;100718.80;;;-0.50
65290;BMP180;51893;59.754;10.110;2024-02-16T02:08:27;100707.60;;;-0.50
65290;BMP180;51893;59.754;10.110;2024-02-16T02:10:55;100707.80;;;-0.40
65290;BMP180;51893;59.754;10.110;2024-02-16T02:13:23;100706.20;;;-0.40
65290;BMP180;51893;59.754;10.110;2024-02-16T02:15:54;100693.60;;;-0.34
65290;BMP180;51893;59.754;10.110;2024-02-16T02:18:23;100689.20;;;-0.40
65290;BMP180;51893;59.754;10.110;2024-02-16T02:20:51;100691.60;;;-0.40
65290;BMP180;51893;59.754;10.110;2024-02-16T02:23:21;100681.80;;;-0.32
65290;BMP180;51893;59.754;10.110;2024-02-16T02:25:49;100680.80;;;-0.40
65290;BMP180;51893;59.754;10.110;2024-02-16T02:28:18;100677.20;;;-0.40
65290;BMP180;51893;59.754;10.110;2024-02-16T02:30:47;100680.00;;;-0.32
65290;BMP180;51893;59.754;10.110;2024-02-16T02:33:15;100668.00;;;-0.30
65290;BMP180;51893;59.754;10.110;2024-02-16T02:35:43;100661.40;;;-0.20
65290;BMP180;51893;59.754;10.110;2024-02-16T02:38:12;100651.00;;;-0.20
65290;BMP180;51893;59.754;10.110;2024-02-16T02:40:40;100649.20;;;-0.20
65290;BMP180;51893;59.754;10.110;2024-02-16T02:43:08;100645.40;;;-0.20
65290;BMP180;51893;59.754;10.110;2024-02-16T02:45:36;100638.40;;;-0.20
65290;BMP180;51893;59.754;10.110;2024-02-16T02:48:06;100634.00;;;-0.20
65290;BMP180;51893;59.754;10.110;2024-02-16T02:50:34;100644.20;;;-0.16
65290;BMP180;51893;59.754;10.110;2024-02-16T02:53:02;100645.20;;;-0.10
65290;BMP180;51893;59.754;10.110;2024-02-16T02:55:30;100641.80;;;-0.10
65290;BMP180;51893;59.754;10.110;2024-02-16T02:57:58;100643.00;;;-0.10
65290;BMP180;51893;59.754;10.110;2024-02-16T03:00:26;100645.00;;;-0.10
65290;BMP180;51893;59.754;10.110;2024-02-16T03:02:54;100645.60;;;-0.10
65290;BMP180;51893;59.754;10.110;2024-02-16T03:05:23;100637.40;;;-0.18
65290;BMP180;51893;59.754;10.110;2024-02-16T03:07:51;100636.40;;;-0.20
65290;BMP180;51893;59.754;10.110;2024-02-16T03:10:20;100636.60;;;-0.10
65290;BMP180;51893;59.754;10.110;2024-02-16T03:12:50;100630.20;;;-0.10
65290;BMP180;51893;59.754;10.110;2024-02-16T03:15:18;100620.40;;;-0.20
65290;BMP180;51893;59.754;10.110;2024-02-16T03:17:47;100612.40;;;-0.20
65290;BMP180;51893;59.754;10.110;2024-02-16T03:20:15;100607.60;;;-0.20
65290;BMP180;51893;59.754;10.110;2024-02-16T03:22:44;100604.80;;;-0.20
65290;BMP180;51893;59.754;10.110;2024-02-16T03:25:13;100594.40;;;-0.20
65290;BMP180;51893;59.754;10.110;2024-02-16T03:27:43;100588.20;;;-0.20
65290;BMP180;51893;59.754;10.110;2024-02-16T03:30:11;100574.20;;;-0.20
65290;BMP180;51893;59.754;10.110;2024-02-16T03:32:39;100565.80;;;-0.20
65290;BMP180;51893;59.754;10.110;2024-02-16T03:35:09;100564.40;;;-0.20
65290;BMP180;51893;59.754;10.110;2024-02-16T03:37:37;100553.20;;;-0.16
65290;BMP180;51893;59.754;10.110;2024-02-16T03:40:06;100546.20;;;-0.10
65290;BMP180;51893;59.754;10.110;2024-02-16T03:42:34;100551.20;;;-0.10
65290;BMP180;51893;59.754;10.110;2024-02-16T03:45:04;100550.20;;;-0.10
65290;BMP180;51893;59.754;10.110;2024-02-16T03:47:32;100551.20;;;0.00
65290;BMP180;51893;59.754;10.110;2024-02-16T03:50:00;100548.40;;;0.00
65290;BMP180;51893;59.754;10.110;2024-02-16T03:52:28;100546.20;;;0.00
65290;BMP180;51893;59.754;10.110;2024-02-16T03:54:56;100564.00;;;0.00
65290;BMP180;51893;59.754;10.110;2024-02-16T03:57:24;100568.60;;;0.00
65290;BMP180;51893;59.754;10.110;2024-02-16T03:59:53;100555.00;;;0.02
65290;BMP180;51893;59.754;10.110;2024-02-16T04:02:22;100558.60;;;0.10
65290;BMP180;51893;59.754;10.110;2024-02-16T04:04:51;100551.40;;;0.10
65290;BMP180;51893;59.754;10.110;2024-02-16T04:07:18;100543.40;;;0.10
65290;BMP180;51893;59.754;10.110;2024-02-16T04:09:47;100528.20;;;0.10
65290;BMP180;51893;59.754;10.110;2024-02-16T04:12:16;100527.60;;;0.10
65290;BMP180;51893;59.754;10.110;2024-02-16T04:14:44;100521.80;;;0.10
65290;BMP180;51893;59.754;10.110;2024-02-16T04:17:12;100514.20;;;0.10
65290;BMP180;51893;59.754;10.110;2024-02-16T04:19:40;100520.80;;;0.10
65290;BMP180;51893;59.754;10.110;2024-02-16T04:22:08;100515.40;;;0.10
65290;BMP180;51893;59.754;10.110;2024-02-16T04:24:36;100508.00;;;0.20
65290;BMP180;51893;59.754;10.110;2024-02-16T04:27:04;100508.20;;;0.20
65290;BMP180;51893;59.754;10.110;2024-02-16T04:29:36;100509.00;;;0.20
65290;BMP180;51893;59.754;10.110;2024-02-16T04:32:04;100503.00;;;0.24
65290;BMP180;51893;59.754;10.110;2024-02-16T04:34:32;100493.80;;;0.20
65290;BMP180;51893;59.754;10.110;2024-02-16T04:37:01;100479.60;;;0.20
65290;BMP180;51893;59.754;10.110;2024-02-16T04:39:31;100476.20;;;0.20
65290;BMP180;51893;59.754;10.110;2024-02-16T04:41:59;100469.00;;;0.30
65290;BMP180;51893;59.754;10.110;2024-02-16T04:44:27;100475.20;;;0.28
65290;BMP180;51893;59.754;10.110;2024-02-16T04:46:56;100473.40;;;0.22
65290;BMP180;51893;59.754;10.110;2024-02-16T04:49:24;100459.20;;;0.20
65290;BMP180;51893;59.754;10.110;2024-02-16T04:51:52;100451.80;;;0.20
65290;BMP180;51893;59.754;10.110;2024-02-16T04:54:21;100446.00;;;0.28
65290;BMP180;51893;59.754;10.110;2024-02-16T04:56:51;100450.00;;;0.30
65290;BMP180;51893;59.754;10.110;2024-02-16T04:59:19;100443.80;;;0.30
65290;BMP180;51893;59.754;10.110;2024-02-16T05:01:47;100440.60;;;0.22
65290;BMP180;51893;59.754;10.110;2024-02-16T05:04:15;100448.00;;;0.20
65290;BMP180;51893;59.754;10.110;2024-02-16T05:06:46;100446.80;;;0.20
65290;BMP180;51893;59.754;10.110;2024-02-16T05:09:14;100450.60;;;0.20
65290;BMP180;51893;59.754;10.110;2024-02-16T05:11:45;100447.60;;;0.20
65290;BMP180;51893;59.754;10.110;2024-02-16T05:14:13;100441.20;;;0.20
65290;BMP180;51893;59.754;10.110;2024-02-16T05:16:45;100453.80;;;0.24
65290;BMP180;51893;59.754;10.110;2024-02-16T05:19:13;100471.60;;;0.30
65290;BMP180;51893;59.754;10.110;2024-02-16T05:21:42;100492.00;;;0.30
65290;BMP180;51893;59.754;10.110;2024-02-16T05:24:12;100500.00;;;0.30
65290;BMP180;51893;59.754;10.110;2024-02-16T05:26:40;100498.80;;;0.30
65290;BMP180;51893;59.754;10.110;2024-02-16T05:29:09;100500.00;;;0.30
65290;BMP180;51893;59.754;10.110;2024-02-16T05:31:37;100497.40;;;0.34
65290;BMP180;51893;59.754;10.110;2024-02-16T05:34:05;100488.60;;;0.40
65290;BMP180;51893;59.754;10.110;2024-02-16T05:36:33;100488.00;;;0.40
65290;BMP180;51893;59.754;10.110;2024-02-16T05:39:04;100474.80;;;0.40
65290;BMP180;51893;59.754;10.110;2024-02-16T05:41:49;100471.20;;;0.40
65290;BMP180;51893;59.754;10.110;2024-02-16T05:44:18;100465.00;;;0.40
65290;BMP180;51893;59.754;10.110;2024-02-16T05:46:46;100461.40;;;0.40
65290;BMP180;51893;59.754;10.110;2024-02-16T05:49:15;100480.00;;;0.40
65290;BMP180;51893;59.754;10.110;2024-02-16T05:51:44;100467.80;;;0.42
65290;BMP180;51893;59.754;10.110;2024-02-16T05:54:32;100458.60;;;0.50
65290;BMP180;51893;59.754;10.110;2024-02-16T05:57:05;100443.80;;;0.50
65290;BMP180;51893;59.754;10.110;2024-02-16T05:59:36;100460.40;;;0.50
65290;BMP180;51893;59.754;10.110;2024-02-16T06:02:06;100445.20;;;0.52
65290;BMP180;51893;59.754;10.110;2024-02-16T06:04:34;100451.20;;;0.54
65290;BMP180;51893;59.754;10.110;2024-02-16T06:07:03;100442.20;;;0.58
65290;BMP180;51893;59.754;10.110;2024-02-16T06:09:32;100436.60;;;0.60
65290;BMP180;51893;59.754;10.110;2024-02-16T06:12:04;100450.80;;;0.60
65290;BMP180;51893;59.754;10.110;2024-02-16T06:14:35;100446.00;;;0.60
65290;BMP180;51893;59.754;10.110;2024-02-16T06:17:04;100429.60;;;0.60
65290;BMP180;51893;59.754;10.110;2024-02-16T06:19:32;100435.40;;;0.60
65290;BMP180;51893;59.754;10.110;2024-02-16T06:22:01;100449.00;;;0.70
65290;BMP180;51893;59.754;10.110;2024-02-16T06:24:29;100449.60;;;0.60
65290;BMP180;51893;59.754;10.110;2024-02-16T06:26:57;100446.60;;;0.60
65290;BMP180;51893;59.754;10.110;2024-02-16T06:29:26;100432.80;;;0.60
65290;BMP180;51893;59.754;10.110;2024-02-16T06:31:54;100435.00;;;0.60
65290;BMP180;51893;59.754;10.110;2024-02-16T06:34:22;100440.80;;;0.60
65290;BMP180;51893;59.754;10.110;2024-02-16T06:36:50;100441.00;;;0.58
65290;BMP180;51893;59.754;10.110;2024-02-16T06:39:19;100439.00;;;0.60
65290;BMP180;51893;59.754;10.110;2024-02-16T06:41:48;100435.40;;;0.60
65290;BMP180;51893;59.754;10.110;2024-02-16T06:44:19;100433.00;;;0.70
65290;BMP180;51893;59.754;10.110;2024-02-16T06:46:51;100433.00;;;0.78
65290;BMP180;51893;59.754;10.110;2024-02-16T06:49:19;100428.00;;;0.70
65290;BMP180;51893;59.754;10.110;2024-02-16T06:51:47;100436.80;;;0.74
65290;BMP180;51893;59.754;10.110;2024-02-16T06:54:15;100430.20;;;0.78
65290;BMP180;51893;59.754;10.110;2024-02-16T06:56:43;100418.40;;;0.80
65290;BMP180;51893;59.754;10.110;2024-02-16T06:59:11;100422.00;;;0.70
65290;BMP180;51893;59.754;10.110;2024-02-16T07:01:40;100417.60;;;0.70
65290;BMP180;51893;59.754;10.110;2024-02-16T07:04:08;100416.60;;;0.70
65290;BMP180;51893;59.754;10.110;2024-02-16T07:06:37;100415.20;;;0.70
65290;BMP180;51893;59.754;10.110;2024-02-16T07:09:06;100412.00;;;0.70
65290;BMP180;51893;59.754;10.110;2024-02-16T07:11:34;100410.80;;;0.70
65290;BMP180;51893;59.754;10.110;2024-02-16T07:14:04;100409.20;;;0.66
65290;BMP180;51893;59.754;10.110;2024-02-16T07:16:36;100410.00;;;0.70
65290;BMP180;51893;59.754;10.110;2024-02-16T07:19:04;100404.00;;;0.70
65290;BMP180;51893;59.754;10.110;2024-02-16T07:21:33;100408.80;;;0.80
65290;BMP180;51893;59.754;10.110;2024-02-16T07:24:01;100423.00;;;0.80
65290;BMP180;51893;59.754;10.110;2024-02-16T07:26:30;100421.00;;;0.80
65290;BMP180;51893;59.754;10.110;2024-02-16T07:28:59;100425.20;;;0.90
65290;BMP180;51893;59.754;10.110;2024-02-16T07:31:32;100424.20;;;0.90
65290;BMP180;51893;59.754;10.110;2024-02-16T07:34:02;100421.80;;;0.90
65290;BMP180;51893;59.754;10.110;2024-02-16T07:36:34;100417.80;;;0.90
65290;BMP180;51893;59.754;10.110;2024-02-16T07:39:02;100422.60;;;0.92
65290;BMP180;51893;59.754;10.110;2024-02-16T07:41:32;100423.00;;;0.90
65290;BMP180;51893;59.754;10.110;2024-02-16T07:44:00;100420.60;;;0.90
65290;BMP180;51893;59.754;10.110;2024-02-16T07:46:28;100417.60;;;1.00
65290;BMP180;51893;59.754;10.110;2024-02-16T07:49:00;100406.00;;;1.00
65290;BMP180;51893;59.754;10.110;2024-02-16T07:51:28;100403.40;;;1.08
65290;BMP180;51893;59.754;10.110;2024-02-16T07:53:56;100404.40;;;1.10
65290;BMP180;51893;59.754;10.110;2024-02-16T07:56:24;100395.60;;;1.10
65290;BMP180;51893;59.754;10.110;2024-02-16T07:58:52;100402.60;;;1.12
65290;BMP180;51893;59.754;10.110;2024-02-16T08:01:20;100406.00;;;1.18
65290;BMP180;51893;59.754;10.110;2024-02-16T08:03:49;100404.20;;;1.10
65290;BMP180;51893;59.754;10.110;2024-02-16T08:06:17;100404.20;;;1.00
65290;BMP180;51893;59.754;10.110;2024-02-16T08:08:48;100406.00;;;0.92
65290;BMP180;51893;59.754;10.110;2024-02-16T08:11:16;100406.80;;;0.90
65290;BMP180;51893;59.754;10.110;2024-02-16T08:13:45;100412.60;;;1.00
65290;BMP180;51893;59.754;10.110;2024-02-16T08:16:13;100412.60;;;1.10
65290;BMP180;51893;59.754;10.110;2024-02-16T08:18:44;100409.60;;;1.10
65290;BMP180;51893;59.754;10.110;2024-02-16T08:21:13;100409.80;;;1.02
65290;BMP180;51893;59.754;10.110;2024-02-16T08:23:41;100411.60;;;1.10
65290;BMP180;51893;59.754;10.110;2024-02-16T08:26:09;100414.00;;;1.10
65290;BMP180;51893;59.754;10.110;2024-02-16T08:28:37;100416.40;;;1.20
65290;BMP180;51893;59.754;10.110;2024-02-16T08:31:08;100410.80;;;1.20
65290;BMP180;51893;59.754;10.110;2024-02-16T08:33:36;100403.60;;;1.22
65290;BMP180;51893;59.754;10.110;2024-02-16T08:36:07;100396.80;;;1.20
65290;BMP180;51893;59.754;10.110;2024-02-16T08:38:36;100401.40;;;1.30
65290;BMP180;51893;59.754;10.110;2024-02-16T08:41:05;100391.80;;;1.36
65290;BMP180;51893;59.754;10.110;2024-02-16T08:43:34;100396.60;;;1.40
65290;BMP180;51893;59.754;10.110;2024-02-16T08:46:02;100385.80;;;1.40
65290;BMP180;51893;59.754;10.110;2024-02-16T08:48:30;100385.20;;;1.50
65290;BMP180;51893;59.754;10.110;2024-02-16T08:50:58;100385.20;;;1.50
65290;BMP180;51893;59.754;10.110;2024-02-16T08:53:26;100384.80;;;1.50
65290;BMP180;51893;59.754;10.110;2024-02-16T08:55:54;100386.20;;;1.50
65290;BMP180;51893;59.754;10.110;2024-02-16T08:58:22;100385.80;;;1.50
65290;BMP180;51893;59.754;10.110;2024-02-16T09:00:50;100380.60;;;1.50
65290;BMP180;51893;59.754;10.110;2024-02-16T09:03:19;100375.20;;;1.50
65290;BMP180;51893;59.754;10.110;2024-02-16T09:05:48;100384.20;;;1.40
65290;BMP180;51893;59.754;10.110;2024-02-16T09:08:16;100385.00;;;1.40
65290;BMP180;51893;59.754;10.110;2024-02-16T09:10:44;100387.20;;;1.40
65290;BMP180;51893;59.754;10.110;2024-02-16T09:13:13;100391.20;;;1.40
65290;BMP180;51893;59.754;10.110;2024-02-16T09:15:41;100397.20;;;1.50
65290;BMP180;51893;59.754;10.110;2024-02-16T09:18:09;100394.40;;;1.50
65290;BMP180;51893;59.754;10.110;2024-02-16T09:20:37;100399.80;;;1.40
65290;BMP180;51893;59.754;10.110;2024-02-16T09:23:05;100401.80;;;1.40
65290;BMP180;51893;59.754;10.110;2024-02-16T09:25:34;100408.60;;;1.20
65290;BMP180;51893;59.754;10.110;2024-02-16T09:28:03;100415.00;;;1.20
65290;BMP180;51893;59.754;10.110;2024-02-16T09:30:33;100425.00;;;1.12
65290;BMP180;51893;59.754;10.110;2024-02-16T09:33:01;100425.40;;;1.10
65290;BMP180;51893;59.754;10.110;2024-02-16T09:35:31;100423.60;;;1.10
65290;BMP180;51893;59.754;10.110;2024-02-16T09:37:58;100433.60;;;1.04
65290;BMP180;51893;59.754;10.110;2024-02-16T09:40:27;100435.20;;;1.00
65290;BMP180;51893;59.754;10.110;2024-02-16T09:42:55;100438.60;;;1.00
65290;BMP180;51893;59.754;10.110;2024-02-16T09:45:24;100439.00;;;1.00
65290;BMP180;51893;59.754;10.110;2024-02-16T09:47:57;100435.40;;;1.00
65290;BMP180;51893;59.754;10.110;2024-02-16T09:50:34;100431.60;;;1.00
65290;BMP180;51893;59.754;10.110;2024-02-16T09:53:05;100433.00;;;1.10
65290;BMP180;51893;59.754;10.110;2024-02-16T09:55:34;100431.20;;;1.16
65290;BMP180;51893;59.754;10.110;2024-02-16T09:58:03;100431.80;;;1.22
65290;BMP180;51893;59.754;10.110;2024-02-16T10:00:33;100424.40;;;1.30
65290;BMP180;51893;59.754;10.110;2024-02-16T10:03:01;100417.40;;;1.40
65290;BMP180;51893;59.754;10.110;2024-02-16T10:05:29;100409.80;;;1.42
65290;BMP180;51893;59.754;10.110;2024-02-16T10:07:58;100407.40;;;1.50
65290;BMP180;51893;59.754;10.110;2024-02-16T10:10:28;100407.20;;;1.60
65290;BMP180;51893;59.754;10.110;2024-02-16T10:13:06;100407.40;;;1.68
65290;BMP180;51893;59.754;10.110;2024-02-16T10:15:35;100410.40;;;1.78
65290;BMP180;51893;59.754;10.110;2024-02-16T10:18:07;100408.80;;;1.80
65290;BMP180;51893;59.754;10.110;2024-02-16T10:20:38;100407.20;;;1.80
65290;BMP180;51893;59.754;10.110;2024-02-16T10:23:09;100415.60;;;1.80
65290;BMP180;51893;59.754;10.110;2024-02-16T10:25:39;100417.60;;;1.80
65290;BMP180;51893;59.754;10.110;2024-02-16T10:28:11;100420.80;;;1.80
65290;BMP180;51893;59.754;10.110;2024-02-16T10:30:43;100414.00;;;1.74
65290;BMP180;51893;59.754;10.110;2024-02-16T10:33:11;100408.00;;;1.80
65290;BMP180;51893;59.754;10.110;2024-02-16T10:35:44;100404.80;;;1.70
65290;BMP180;51893;59.754;10.110;2024-02-16T10:38:12;100396.80;;;1.70
65290;BMP180;51893;59.754;10.110;2024-02-16T10:40:48;100397.00;;;1.64
65290;BMP180;51893;59.754;10.110;2024-02-16T10:43:18;100395.00;;;1.60
65290;BMP180;51893;59.754;10.110;2024-02-16T10:45:47;100379.40;;;1.60
65290;BMP180;51893;59.754;10.110;2024-02-16T10:48:20;100376.60;;;1.60
65290;BMP180;51893;59.754;10.110;2024-02-16T10:50:51;100392.80;;;1.70
65290;BMP180;51893;59.754;10.110;2024-02-16T10:53:28;100398.00;;;1.74
65290;BMP180;51893;59.754;10.110;2024-02-16T10:55:58;100395.00;;;1.80
65290;BMP180;51893;59.754;10.110;2024-02-16T10:58:28;100392.80;;;1.80
65290;BMP180;51893;59.754;10.110;2024-02-16T11:01:07;100384.80;;;1.80
65290;BMP180;51893;59.754;10.110;2024-02-16T11:03:38;100375.20;;;1.80
65290;BMP180;51893;59.754;10.110;2024-02-16T11:06:15;100380.20;;;1.84
65290;BMP180;51893;59.754;10.110;2024-02-16T11:08:49;100377.60;;;1.90
65290;BMP180;51893;59.754;10.110;2024-02-16T11:11:25;100372.80;;;1.90
65290;BMP180;51893;59.754;10.110;2024-02-16T11:13:55;100358.00;;;1.90
65290;BMP180;51893;59.754;10.110;2024-02-16T11:16:24;100359.60;;;2.00
65290;BMP180;51893;59.754;10.110;2024-02-16T11:18:54;100355.40;;;2.00
65290;BMP180;51893;59.754;10.110;2024-02-16T11:21:24;100362.60;;;2.00
65290;BMP180;51893;59.754;10.110;2024-02-16T11:24:06;100356.00;;;2.06
65290;BMP180;51893;59.754;10.110;2024-02-16T11:26:42;100351.20;;;2.08
65290;BMP180;51893;59.754;10.110;2024-02-16T11:29:12;100342.40;;;2.10
65290;BMP180;51893;59.754;10.110;2024-02-16T11:31:43;100337.00;;;2.10
65290;BMP180;51893;59.754;10.110;2024-02-16T11:34:24;100333.20;;;2.00
65290;BMP180;51893;59.754;10.110;2024-02-16T11:36:56;100338.00;;;1.90
65290;BMP180;51893;59.754;10.110;2024-02-16T11:39:26;100332.40;;;1.76
65290;BMP180;51893;59.754;10.110;2024-02-16T11:42:06;100322.40;;;1.70
65290;BMP180;51893;59.754;10.110;2024-02-16T11:44:38;100319.20;;;1.60
65290;BMP180;51893;59.754;10.110;2024-02-16T11:47:10;100307.00;;;1.50
65290;BMP180;51893;59.754;10.110;2024-02-16T11:49:44;100302.20;;;1.50
65290;BMP180;51893;59.754;10.110;2024-02-16T11:52:14;100301.40;;;1.50
65290;BMP180;51893;59.754;10.110;2024-02-16T11:54:45;100308.40;;;1.50
65290;BMP180;51893;59.754;10.110;2024-02-16T11:57:13;100311.00;;;1.50
65290;BMP180;51893;59.754;10.110;2024-02-16T11:59:41;100320.40;;;1.60
65290;BMP180;51893;59.754;10.110;2024-02-16T12:02:17;100315.40;;;1.60
65290;BMP180;51893;59.754;10.110;2024-02-16T12:04:59;100311.80;;;1.68
65290;BMP180;51893;59.754;10.110;2024-02-16T12:07:32;100312.60;;;1.70
65290;BMP180;51893;59.754;10.110;2024-02-16T12:10:03;100313.40;;;1.80
65290;BMP180;51893;59.754;10.110;2024-02-16T12:12:40;100299.60;;;1.90
65290;BMP180;51893;59.754;10.110;2024-02-16T12:15:11;100294.20;;;1.90
65290;BMP180;51893;59.754;10.110;2024-02-16T12:17:41;100293.40;;;2.00
65290;BMP180;51893;59.754;10.110;2024-02-16T12:20:13;100291.80;;;2.00
65290;BMP180;51893;59.754;10.110;2024-02-16T12:22:42;100289.20;;;2.00
65290;BMP180;51893;59.754;10.110;2024-02-16T12:25:10;100291.00;;;2.00
65290;BMP180;51893;59.754;10.110;2024-02-16T12:27:40;100291.80;;;1.90
65290;BMP180;51893;59.754;10.110;2024-02-16T12:30:09;100292.40;;;1.90
65290;BMP180;51893;59.754;10.110;2024-02-16T12:32:37;100298.80;;;1.90
65290;BMP180;51893;59.754;10.110;2024-02-16T12:35:06;100291.00;;;1.90
65290;BMP180;51893;59.754;10.110;2024-02-16T12:37:37;100296.00;;;2.00
65290;BMP180;51893;59.754;10.110;2024-02-16T12:40:07;100290.40;;;2.00
65290;BMP180;51893;59.754;10.110;2024-02-16T12:42:35;100292.20;;;1.90
65290;BMP180;51893;59.754;10.110;2024-02-16T12:45:04;100293.00;;;1.90
65290;BMP180;51893;59.754;10.110;2024-02-16T12:47:33;100296.80;;;1.80
65290;BMP180;51893;59.754;10.110;2024-02-16T12:50:01;100294.20;;;1.80
65290;BMP180;51893;59.754;10.110;2024-02-16T12:52:30;100298.00;;;1.80
65290;BMP180;51893;59.754;10.110;2024-02-16T12:54:59;100298.20;;;1.70
65290;BMP180;51893;59.754;10.110;2024-02-16T12:57:27;100298.80;;;1.70
65290;BMP180;51893;59.754;10.110;2024-02-16T12:59:57;100295.40;;;1.66
65290;BMP180;51893;59.754;10.110;2024-02-16T13:02:25;100287.80;;;1.68
65290;BMP180;51893;59.754;10.110;2024-02-16T13:04:55;100282.00;;;1.70
65290;BMP180;51893;59.754;10.110;2024-02-16T13:07:24;100286.20;;;1.70
65290;BMP180;51893;59.754;10.110;2024-02-16T13:09:53;100281.80;;;1.62
65290;BMP180;51893;59.754;10.110;2024-02-16T13:12:22;100287.60;;;1.60
65290;BMP180;51893;59.754;10.110;2024-02-16T13:14:52;100286.40;;;1.60
65290;BMP180;51893;59.754;10.110;2024-02-16T13:17:20;100278.00;;;1.64
65290;BMP180;51893;59.754;10.110;2024-02-16T13:19:48;100285.80;;;1.60
65290;BMP180;51893;59.754;10.110;2024-02-16T13:22:16;100285.60;;;1.60
65290;BMP180;51893;59.754;10.110;2024-02-16T13:24:45;100282.20;;;1.60
65290;BMP180;51893;59.754;10.110;2024-02-16T13:27:13;100274.20;;;1.60
65290;BMP180;51893;59.754;10.110;2024-02-16T13:29:41;100265.00;;;1.60
65290;BMP180;51893;59.754;10.110;2024-02-16T13:32:08;100257.80;;;1.50
65290;BMP180;51893;59.754;10.110;2024-02-16T13:34:36;100256.00;;;1.60
65290;BMP180;51893;59.754;10.110;2024-02-16T13:37:04;100261.40;;;1.60
65290;BMP180;51893;59.754;10.110;2024-02-16T13:39:32;100260.60;;;1.60
65290;BMP180;51893;59.754;10.110;2024-02-16T13:42:01;100246.60;;;1.60
65290;BMP180;51893;59.754;10.110;2024-02-16T13:44:29;100252.20;;;1.60
65290;BMP180;51893;59.754;10.110;2024-02-16T13:46:57;100249.40;;;1.60
65290;BMP180;51893;59.754;10.110;2024-02-16T13:49:25;100252.80;;;1.60
65290;BMP180;51893;59.754;10.110;2024-02-16T13:51:54;100251.00;;;1.60
65290;BMP180;51893;59.754;10.110;2024-02-16T13:54:27;100249.00;;;1.60
65290;BMP180;51893;59.754;10.110;2024-02-16T13:56:57;100256.00;;;1.60
65290;BMP180;51893;59.754;10.110;2024-02-16T13:59:26;100256.80;;;1.60
65290;BMP180;51893;59.754;10.110;2024-02-16T14:01:54;100259.60;;;1.66
65290;BMP180;51893;59.754;10.110;2024-02-16T14:04:23;100263.20;;;1.70
65290;BMP180;51893;59.754;10.110;2024-02-16T14:06:52;100259.20;;;1.70